Time,TemperatureF,DewpointF,PressureIn,WindDirection,WindDirectionDegrees,WindSpeedMPH,WindSpeedGustMPH,Humidity,HourlyPrecipIn,Conditions,Clouds,dailyrainin,SolarRadiationWatts/m^2,SoftwareType,DateUTC
2013-06-09 00:10:00,70.9,70.0,30.11,North,11,0.0,1.0,96,0.00,,,0.00,0,weatherlink.com 1.10,2013-06-09 04:10:00,
2013-06-09 00:25:00,70.9,70.0,30.12,SE,127,0.0,2.0,96,0.00,,,0.00,0,weatherlink.com 1.10,2013-06-09 04:25:00,
2013-06-09 00:41:00,71.3,70.0,30.12,SE,140,0.0,3.0,97,0.00,,,0.00,0,weatherlink.com 1.10,2013-06-09 04:41:00,
2013-06-09 01:11:00,71.7,71.0,30.12,ESE,119,3.0,3.0,97,0.00,,,0.00,0,weatherlink.com 1.10,2013-06-09 05:11:00,
2013-06-09 01:26:00,71.8,71.0,30.12,ENE,66,0.0,4.0,97,0.00,,,0.00,0,weatherlink.com 1.10,2013-06-09 05:26:00,
2013-06-09 01:42:00,71.8,71.0,30.12,East,100,0.0,1.0,97,0.00,,,0.00,0,weatherlink.com 1.10,2013-06-09 05:42:00,
2013-06-09 01:56:00,71.9,71.0,30.12,SSE,148,0.0,2.0,97,0.00,,,0.00,0,weatherlink.com 1.10,2013-06-09 05:56:00,
2013-06-09 02:12:00,71.8,71.0,30.11,SSE,148,0.0,0.0,97,0.00,,,0.00,0,weatherlink.com 1.10,2013-06-09 06:12:00,
2013-06-09 02:27:00,71.7,71.0,30.11,SSE,148,0.0,0.0,97,0.00,,,0.00,0,weatherlink.com 1.10,2013-06-09 06:27:00,
2013-06-09 02:42:00,71.5,71.0,30.11,SSE,148,0.0,0.0,97,0.00,,,0.00,0,weatherlink.com 1.10,2013-06-09 06:42:00,
2013-06-09 02:57:00,71.4,71.0,30.11,SSE,148,0.0,1.0,97,0.00,,,0.00,0,weatherlink.com 1.10,2013-06-09 06:57:00,
2013-06-09 03:12:00,71.2,70.0,30.11,SSE,148,0.0,0.0,97,0.00,,,0.00,0,weatherlink.com 1.10,2013-06-09 07:12:00,
2013-06-09 03:27:00,70.9,70.0,30.10,SSE,148,0.0,0.0,96,0.00,,,0.00,0,weatherlink.com 1.10,2013-06-09 07:27:00,
2013-06-09 03:42:00,70.8,70.0,30.10,SSE,148,0.0,0.0,97,0.00,,,0.00,0,weatherlink.com 1.10,2013-06-09 07:42:00,
2013-06-09 03:57:00,70.8,70.0,30.09,SSE,148,0.0,1.0,97,0.00,,,0.00,0,weatherlink.com 1.10,2013-06-09 07:57:00,
2013-06-09 04:12:00,70.7,70.0,30.09,SSE,148,0.0,1.0,97,0.00,,,0.00,0,weatherlink.com 1.10,2013-06-09 08:12:00,
2013-06-09 04:27:00,70.5,70.0,30.10,SSE,148,0.0,1.0,97,0.00,,,0.00,0,weatherlink.com 1.10,2013-06-09 08:27:00,
2013-06-09 04:42:00,70.6,70.0,30.10,SSE,148,0.0,0.0,97,0.00,,,0.00,0,weatherlink.com 1.10,2013-06-09 08:42:00,
2013-06-09 04:57:00,70.5,70.0,30.10,SSE,148,0.0,1.0,97,0.00,,,0.00,0,weatherlink.com 1.10,2013-06-09 08:57:00,
2013-06-09 05:12:00,70.6,70.0,30.10,SSE,148,0.0,0.0,97,0.00,,,0.00,0,weatherlink.com 1.10,2013-06-09 09:12:00,
2013-06-09 05:27:00,70.5,70.0,30.10,SSE,148,0.0,0.0,97,0.00,,,0.00,0,weatherlink.com 1.10,2013-06-09 09:27:00,
2013-06-09 05:42:00,70.5,70.0,30.10,SSE,148,0.0,0.0,97,0.00,,,0.00,0,weatherlink.com 1.10,2013-06-09 09:42:00,
2013-06-09 05:57:00,70.4,70.0,30.10,SSE,148,0.0,0.0,97,0.00,,,0.00,0,weatherlink.com 1.10,2013-06-09 09:57:00,
2013-06-09 06:12:00,70.3,69.0,30.11,SSE,148,0.0,0.0,97,0.00,,,0.00,0,weatherlink.com 1.10,2013-06-09 10:12:00,
2013-06-09 06:27:00,70.2,69.0,30.11,SSE,148,0.0,0.0,97,0.00,,,0.00,0,weatherlink.com 1.10,2013-06-09 10:27:00,
2013-06-09 06:42:00,70.2,69.0,30.11,SSE,148,0.0,0.0,97,0.00,,,0.00,12,weatherlink.com 1.10,2013-06-09 10:42:00,
2013-06-09 06:57:00,70.5,70.0,30.11,SSE,148,0.0,0.0,97,0.00,,,0.00,28,weatherlink.com 1.10,2013-06-09 10:57:00,
2013-06-09 07:12:00,71.0,70.0,30.11,SSE,148,0.0,0.0,97,0.00,,,0.00,35,weatherlink.com 1.10,2013-06-09 11:12:00,
2013-06-09 07:26:00,72.1,72.0,30.12,SSE,148,0.0,0.0,98,0.00,,,0.00,127,weatherlink.com 1.10,2013-06-09 11:26:00,
2013-06-09 07:42:00,74.1,74.0,30.12,SSE,148,0.0,0.0,98,0.00,,,0.00,67,weatherlink.com 1.10,2013-06-09 11:42:00,
2013-06-09 07:57:00,75.8,75.0,30.12,SE,126,0.0,2.0,98,0.00,,,0.00,248,weatherlink.com 1.10,2013-06-09 11:57:00,
2013-06-09 08:12:00,77.7,77.0,30.13,ESE,113,0.0,3.0,98,0.00,,,0.00,318,weatherlink.com 1.10,2013-06-09 12:12:00,
2013-06-09 08:27:00,80.0,78.0,30.14,ENE,63,0.0,3.0,92,0.00,,,0.00,350,weatherlink.com 1.10,2013-06-09 12:27:00,
2013-06-09 08:42:00,80.2,77.0,30.14,ESE,111,0.0,2.0,89,0.00,,,0.00,153,weatherlink.com 1.10,2013-06-09 12:42:00,
2013-06-09 08:58:00,81.3,77.0,30.14,ESE,117,0.0,3.0,86,0.00,,,0.00,432,weatherlink.com 1.10,2013-06-09 12:58:00,
2013-06-09 09:12:00,83.2,78.0,30.14,SE,138,1.0,3.0,84,0.00,,,0.00,343,weatherlink.com 1.10,2013-06-09 13:12:00,
2013-06-09 09:28:00,82.5,77.0,30.13,SW,235,0.0,4.0,84,0.00,,,0.00,290,weatherlink.com 1.10,2013-06-09 13:28:00,
2013-06-09 09:43:00,82.5,77.0,30.13,SW,236,0.0,3.0,84,0.00,,,0.00,359,weatherlink.com 1.10,2013-06-09 13:43:00,
2013-06-09 09:58:00,82.6,77.0,30.13,South,185,0.0,5.0,84,0.00,,,0.00,269,weatherlink.com 1.10,2013-06-09 13:58:00,
2013-06-09 10:13:00,82.6,77.0,30.13,South,169,1.0,3.0,84,0.00,,,0.00,397,weatherlink.com 1.10,2013-06-09 14:13:00,
2013-06-09 10:28:00,83.1,78.0,30.13,SW,226,0.0,3.0,84,0.00,,,0.00,156,weatherlink.com 1.10,2013-06-09 14:28:00,
2013-06-09 10:43:00,83.4,77.0,30.13,South,184,0.0,3.0,82,0.00,,,0.00,962,weatherlink.com 1.10,2013-06-09 14:43:00,
2013-06-09 10:58:00,84.8,78.0,30.13,SSW,201,1.0,3.0,80,0.00,,,0.00,167,weatherlink.com 1.10,2013-06-09 14:58:00,
2013-06-09 11:13:00,85.7,78.0,30.14,South,180,2.0,5.0,78,0.00,,,0.00,183,weatherlink.com 1.10,2013-06-09 15:13:00,
2013-06-09 11:29:00,87.2,76.0,30.14,SE,141,2.0,8.0,69,0.00,,,0.00,1081,weatherlink.com 1.10,2013-06-09 15:29:00,
2013-06-09 11:44:00,87.2,76.0,30.14,ESE,115,1.0,7.0,70,0.00,,,0.00,192,weatherlink.com 1.10,2013-06-09 15:44:00,
2013-06-09 12:00:00,85.6,76.0,30.14,SE,138,0.0,3.0,74,0.00,,,0.00,338,weatherlink.com 1.10,2013-06-09 16:00:00,
2013-06-09 12:14:00,86.2,77.0,30.14,SW,216,2.0,5.0,74,0.00,,,0.00,271,weatherlink.com 1.10,2013-06-09 16:14:00,
2013-06-09 12:29:00,86.8,77.0,30.13,NNE,25,2.0,5.0,72,0.00,,,0.00,267,weatherlink.com 1.10,2013-06-09 16:29:00,
2013-06-09 12:44:00,87.1,78.0,30.13,South,190,0.0,5.0,75,0.00,,,0.00,1107,weatherlink.com 1.10,2013-06-09 16:44:00,
2013-06-09 12:59:00,88.0,78.0,30.13,NE,42,5.0,11.0,72,0.00,,,0.00,904,weatherlink.com 1.10,2013-06-09 16:59:00,
2013-06-09 13:14:00,88.0,77.0,30.14,ENE,58,3.0,9.0,69,0.00,,,0.00,942,weatherlink.com 1.10,2013-06-09 17:14:00,
2013-06-09 13:29:00,87.9,77.0,30.13,ENE,67,7.0,14.0,70,0.00,,,0.00,1028,weatherlink.com 1.10,2013-06-09 17:29:00,
2013-06-09 13:45:00,87.4,75.0,30.13,NNW,343,5.0,13.0,67,0.00,,,0.00,1111,weatherlink.com 1.10,2013-06-09 17:45:00,
2013-06-09 14:00:00,87.3,76.0,30.13,West,259,4.0,11.0,69,0.00,,,0.00,939,weatherlink.com 1.10,2013-06-09 18:00:00,
2013-06-09 14:16:00,87.4,75.0,30.11,SSE,152,5.0,13.0,66,0.00,,,0.00,911,weatherlink.com 1.10,2013-06-09 18:16:00,
2013-06-09 14:31:00,87.5,76.0,30.11,East,92,2.0,13.0,69,0.00,,,0.00,963,weatherlink.com 1.10,2013-06-09 18:31:00,
2013-06-09 14:46:00,87.7,76.0,30.11,SW,216,4.0,11.0,68,0.00,,,0.00,846,weatherlink.com 1.10,2013-06-09 18:46:00,
2013-06-09 15:01:00,87.4,75.0,30.11,SSW,209,3.0,10.0,66,0.00,,,0.00,914,weatherlink.com 1.10,2013-06-09 19:01:00,
2013-06-09 15:16:00,87.3,75.0,30.10,NE,41,1.0,11.0,67,0.00,,,0.00,874,weatherlink.com 1.10,2013-06-09 19:16:00,
2013-06-09 15:31:00,87.1,74.0,30.10,NE,44,3.0,11.0,65,0.00,,,0.00,849,weatherlink.com 1.10,2013-06-09 19:31:00,
2013-06-09 15:46:00,87.1,74.0,30.09,SW,217,6.0,14.0,66,0.00,,,0.00,830,weatherlink.com 1.10,2013-06-09 19:46:00,
2013-06-09 16:01:00,87.0,73.0,30.09,ESE,102,4.0,9.0,63,0.00,,,0.00,788,weatherlink.com 1.10,2013-06-09 20:01:00,
2013-06-09 16:16:00,86.7,70.0,30.09,ESE,115,1.0,12.0,58,0.00,,,0.00,749,weatherlink.com 1.10,2013-06-09 20:16:00,
2013-06-09 16:31:00,87.4,73.0,30.08,SSW,213,6.0,9.0,62,0.00,,,0.00,707,weatherlink.com 1.10,2013-06-09 20:31:00,
2013-06-09 16:46:00,86.7,73.0,30.08,SE,142,8.0,15.0,64,0.00,,,0.00,58,weatherlink.com 1.10,2013-06-09 20:46:00,
2013-06-09 17:02:00,85.6,75.0,30.08,NNE,31,0.0,11.0,70,0.00,,,0.00,69,weatherlink.com 1.10,2013-06-09 21:02:00,
2013-06-09 17:16:00,83.7,73.0,30.08,ENE,57,1.0,11.0,71,0.00,,,0.00,109,weatherlink.com 1.10,2013-06-09 21:16:00,
2013-06-09 17:46:00,83.5,75.0,30.07,West,261,1.0,8.0,75,0.00,,,0.00,158,weatherlink.com 1.10,2013-06-09 21:46:00,
2013-06-09 18:16:00,84.6,75.0,30.07,SE,145,3.0,14.0,72,0.00,,,0.00,121,weatherlink.com 1.10,2013-06-09 22:16:00,
2013-06-09 18:32:00,84.5,75.0,30.07,SW,231,3.0,9.0,73,0.00,,,0.00,93,weatherlink.com 1.10,2013-06-09 22:32:00,
2013-06-09 18:47:00,84.1,74.0,30.07,East,92,2.0,7.0,72,0.00,,,0.00,56,weatherlink.com 1.10,2013-06-09 22:47:00,
2013-06-09 19:02:00,83.0,74.0,30.07,WSW,242,3.0,6.0,74,0.00,,,0.00,39,weatherlink.com 1.10,2013-06-09 23:02:00,
2013-06-09 19:17:00,82.2,74.0,30.08,ENE,68,2.0,7.0,75,0.00,,,0.00,23,weatherlink.com 1.10,2013-06-09 23:17:00,
2013-06-09 19:32:00,81.4,74.0,30.09,ESE,104,0.0,5.0,77,0.00,,,0.00,16,weatherlink.com 1.10,2013-06-09 23:32:00,
2013-06-09 19:47:00,80.6,74.0,30.09,SE,129,0.0,6.0,80,0.00,,,0.00,11,weatherlink.com 1.10,2013-06-09 23:47:00,
2013-06-09 20:02:00,79.9,74.0,30.09,SSW,201,0.0,6.0,82,0.00,,,0.00,5,weatherlink.com 1.10,2013-06-10 00:02:00,
2013-06-09 20:17:00,79.3,74.0,30.09,NE,51,3.0,3.0,84,0.00,,,0.00,0,weatherlink.com 1.10,2013-06-10 00:17:00,
2013-06-09 20:32:00,78.9,74.0,30.10,East,88,0.0,3.0,84,0.00,,,0.00,0,weatherlink.com 1.10,2013-06-10 00:32:00,
2013-06-09 20:48:00,78.5,74.0,30.10,ENE,76,2.0,4.0,85,0.00,,,0.00,0,weatherlink.com 1.10,2013-06-10 00:48:00,
2013-06-09 21:03:00,78.2,74.0,30.11,ESE,113,0.0,3.0,86,0.00,,,0.00,0,weatherlink.com 1.10,2013-06-10 01:03:00,
2013-06-09 21:18:00,77.8,74.0,30.11,ESE,114,0.0,3.0,87,0.00,,,0.00,0,weatherlink.com 1.10,2013-06-10 01:18:00,
2013-06-09 21:33:00,77.5,73.0,30.11,East,94,2.0,2.0,87,0.00,,,0.00,0,weatherlink.com 1.10,2013-06-10 01:33:00,
2013-06-09 21:48:00,77.2,74.0,30.11,East,94,0.0,1.0,88,0.00,,,0.00,0,weatherlink.com 1.10,2013-06-10 01:48:00,
2013-06-09 22:03:00,76.9,74.0,30.11,SE,125,0.0,2.0,89,0.00,,,0.00,0,weatherlink.com 1.10,2013-06-10 02:03:00,
2013-06-09 22:18:00,76.8,73.0,30.11,ESE,103,1.0,2.0,89,0.00,,,0.00,0,weatherlink.com 1.10,2013-06-10 02:18:00,
2013-06-09 22:33:00,76.8,74.0,30.12,NNE,29,2.0,3.0,90,0.00,,,0.00,0,weatherlink.com 1.10,2013-06-10 02:33:00,
2013-06-09 22:48:00,76.9,74.0,30.12,East,99,0.0,2.0,90,0.00,,,0.00,0,weatherlink.com 1.10,2013-06-10 02:48:00,
2013-06-09 23:03:00,77.1,74.0,30.12,ENE,71,1.0,4.0,91,0.00,,,0.00,0,weatherlink.com 1.10,2013-06-10 03:03:00,
2013-06-09 23:19:00,77.1,74.0,30.12,SE,146,0.0,1.0,91,0.00,,,0.00,0,weatherlink.com 1.10,2013-06-10 03:19:00,
2013-06-09 23:34:00,77.1,74.0,30.12,ENE,70,0.0,3.0,91,0.00,,,0.00,0,weatherlink.com 1.10,2013-06-10 03:34:00,
2013-06-09 23:49:00,76.9,74.0,30.12,ESE,111,1.0,3.0,91,0.00,,,0.00,0,weatherlink.com 1.10,2013-06-10 03:49:00,